sensor_id;sensor_type;location;lat;lon;timestamp;P1;durP1;ratioP1;P2;durP2;ratioP2
71753;SDS011;59593;51.716;7.016;2023-06-10T00:01:53;10.13;;;7.85;;
71753;SDS011;59593;51.716;7.016;2023-06-10T00:04:24;11.80;;;7.75;;
71753;SDS011;59593;51.716;7.016;2023-06-10T00:06:51;9.43;;;7.68;;
71753;SDS011;59593;51.716;7.016;2023-06-10T00:09:16;8.45;;;7.55;;
71753;SDS011;59593;51.716;7.016;2023-06-10T00:11:43;9.93;;;7.70;;
71753;SDS011;59593;51.716;7.016;2023-06-10T00:14:09;10.27;;;7.50;;
71753;SDS011;59593;51.716;7.016;2023-06-10T00:16:35;8.82;;;7.43;;
71753;SDS011;59593;51.716;7.016;2023-06-10T00:19:01;10.93;;;7.38;;
71753;SDS011;59593;51.716;7.016;2023-06-10T00:21:28;8.73;;;7.85;;
71753;SDS011;59593;51.716;7.016;2023-06-10T00:23:55;9.75;;;7.55;;
71753;SDS011;59593;51.716;7.016;2023-06-10T00:26:21;10.48;;;7.57;;
71753;SDS011;59593;51.716;7.016;2023-06-10T00:28:48;9.32;;;7.45;;
71753;SDS011;59593;51.716;7.016;2023-06-10T00:31:14;8.90;;;7.60;;
71753;SDS011;59593;51.716;7.016;2023-06-10T00:33:40;9.35;;;7.53;;
71753;SDS011;59593;51.716;7.016;2023-06-10T00:36:05;9.07;;;7.88;;
71753;SDS011;59593;51.716;7.016;2023-06-10T00:38:37;10.07;;;7.65;;
71753;SDS011;59593;51.716;7.016;2023-06-10T00:41:03;9.27;;;7.43;;
71753;SDS011;59593;51.716;7.016;2023-06-10T00:43:28;8.00;;;7.20;;
71753;SDS011;59593;51.716;7.016;2023-06-10T00:45:54;10.50;;;7.78;;
71753;SDS011;59593;51.716;7.016;2023-06-10T00:48:19;8.32;;;7.53;;
71753;SDS011;59593;51.716;7.016;2023-06-10T00:50:45;8.30;;;7.25;;
71753;SDS011;59593;51.716;7.016;2023-06-10T00:53:12;9.35;;;7.38;;
71753;SDS011;59593;51.716;7.016;2023-06-10T00:55:37;9.25;;;7.70;;
71753;SDS011;59593;51.716;7.016;2023-06-10T00:58:03;8.48;;;7.60;;
71753;SDS011;59593;51.716;7.016;2023-06-10T01:00:29;9.90;;;7.22;;
71753;SDS011;59593;51.716;7.016;2023-06-10T01:02:55;8.82;;;7.55;;
71753;SDS011;59593;51.716;7.016;2023-06-10T01:05:21;10.10;;;7.65;;
71753;SDS011;59593;51.716;7.016;2023-06-10T01:10:21;15.70;;;8.00;;
71753;SDS011;59593;51.716;7.016;2023-06-10T01:12:59;9.20;;;7.40;;
71753;SDS011;59593;51.716;7.016;2023-06-10T01:15:27;9.88;;;7.68;;
71753;SDS011;59593;51.716;7.016;2023-06-10T01:20:31;8.18;;;7.10;;
71753;SDS011;59593;51.716;7.016;2023-06-10T01:22:58;8.88;;;7.28;;
71753;SDS011;59593;51.716;7.016;2023-06-10T01:25:25;8.38;;;7.55;;
71753;SDS011;59593;51.716;7.016;2023-06-10T01:33:20;10.48;;;7.93;;
71753;SDS011;59593;51.716;7.016;2023-06-10T01:35:51;9.18;;;7.75;;
71753;SDS011;59593;51.716;7.016;2023-06-10T01:38:19;9.60;;;7.68;;
71753;SDS011;59593;51.716;7.016;2023-06-10T01:40:45;8.70;;;7.75;;
71753;SDS011;59593;51.716;7.016;2023-06-10T01:43:13;12.02;;;7.80;;
71753;SDS011;59593;51.716;7.016;2023-06-10T01:45:38;9.43;;;7.50;;
71753;SDS011;59593;51.716;7.016;2023-06-10T01:48:04;8.00;;;7.20;;
71753;SDS011;59593;51.716;7.016;2023-06-10T01:50:31;9.77;;;7.90;;
71753;SDS011;59593;51.716;7.016;2023-06-10T01:52:57;12.00;;;7.80;;
71753;SDS011;59593;51.716;7.016;2023-06-10T01:55:24;8.55;;;7.65;;
71753;SDS011;59593;51.716;7.016;2023-06-10T01:57:50;10.23;;;8.07;;
71753;SDS011;59593;51.716;7.016;2023-06-10T02:00:16;10.93;;;7.50;;
71753;SDS011;59593;51.716;7.016;2023-06-10T02:02:42;8.90;;;7.90;;
71753;SDS011;59593;51.716;7.016;2023-06-10T02:05:08;8.40;;;7.55;;
71753;SDS011;59593;51.716;7.016;2023-06-10T02:07:33;8.02;;;7.22;;
71753;SDS011;59593;51.716;7.016;2023-06-10T02:09:59;10.40;;;7.80;;
71753;SDS011;59593;51.716;7.016;2023-06-10T02:12:24;9.45;;;7.38;;
71753;SDS011;59593;51.716;7.016;2023-06-10T02:14:50;9.55;;;7.57;;
71753;SDS011;59593;51.716;7.016;2023-06-10T02:17:16;8.52;;;7.47;;
71753;SDS011;59593;51.716;7.016;2023-06-10T02:19:41;8.20;;;7.30;;
71753;SDS011;59593;51.716;7.016;2023-06-10T02:22:08;8.10;;;7.05;;
71753;SDS011;59593;51.716;7.016;2023-06-10T02:24:35;10.98;;;7.55;;
71753;SDS011;59593;51.716;7.016;2023-06-10T02:27:01;9.65;;;7.50;;
71753;SDS011;59593;51.716;7.016;2023-06-10T02:29:28;11.68;;;8.10;;
71753;SDS011;59593;51.716;7.016;2023-06-10T02:31:54;11.30;;;7.78;;
71753;SDS011;59593;51.716;7.016;2023-06-10T02:34:19;9.10;;;7.38;;
71753;SDS011;59593;51.716;7.016;2023-06-10T02:36:45;10.95;;;8.07;;
71753;SDS011;59593;51.716;7.016;2023-06-10T02:39:11;9.07;;;7.63;;
71753;SDS011;59593;51.716;7.016;2023-06-10T02:41:37;9.00;;;7.65;;
71753;SDS011;59593;51.716;7.016;2023-06-10T02:44:02;8.35;;;7.43;;
71753;SDS011;59593;51.716;7.016;2023-06-10T02:46:28;9.85;;;7.65;;
71753;SDS011;59593;51.716;7.016;2023-06-10T02:48:54;8.43;;;7.43;;
71753;SDS011;59593;51.716;7.016;2023-06-10T02:51:20;11.13;;;7.50;;
71753;SDS011;59593;51.716;7.016;2023-06-10T02:53:46;10.85;;;7.70;;
71753;SDS011;59593;51.716;7.016;2023-06-10T02:56:11;10.38;;;8.05;;
71753;SDS011;59593;51.716;7.016;2023-06-10T02:58:38;9.82;;;7.30;;
71753;SDS011;59593;51.716;7.016;2023-06-10T03:01:04;9.25;;;7.72;;
71753;SDS011;59593;51.716;7.016;2023-06-10T03:03:31;10.77;;;7.45;;
71753;SDS011;59593;51.716;7.016;2023-06-10T03:05:58;10.30;;;7.50;;
71753;SDS011;59593;51.716;7.016;2023-06-10T03:08:23;9.02;;;7.28;;
71753;SDS011;59593;51.716;7.016;2023-06-10T03:10:50;13.57;;;7.68;;
71753;SDS011;59593;51.716;7.016;2023-06-10T03:13:15;10.88;;;7.25;;
71753;SDS011;59593;51.716;7.016;2023-06-10T03:15:41;9.90;;;6.95;;
71753;SDS011;59593;51.716;7.016;2023-06-10T03:18:07;9.93;;;7.10;;
71753;SDS011;59593;51.716;7.016;2023-06-10T03:20:32;8.63;;;6.57;;
71753;SDS011;59593;51.716;7.016;2023-06-10T03:23:02;9.55;;;7.15;;
71753;SDS011;59593;51.716;7.016;2023-06-10T03:25:27;7.53;;;6.72;;
71753;SDS011;59593;51.716;7.016;2023-06-10T03:27:53;10.65;;;7.10;;
71753;SDS011;59593;51.716;7.016;2023-06-10T03:30:19;11.40;;;6.57;;
71753;SDS011;59593;51.716;7.016;2023-06-10T03:32:45;8.52;;;6.75;;
71753;SDS011;59593;51.716;7.016;2023-06-10T03:35:10;10.13;;;7.18;;
71753;SDS011;59593;51.716;7.016;2023-06-10T03:37:36;9.98;;;6.70;;
71753;SDS011;59593;51.716;7.016;2023-06-10T03:40:02;9.88;;;6.80;;
71753;SDS011;59593;51.716;7.016;2023-06-10T03:42:28;9.98;;;6.60;;
71753;SDS011;59593;51.716;7.016;2023-06-10T03:44:54;8.25;;;6.75;;
71753;SDS011;59593;51.716;7.016;2023-06-10T03:47:21;8.95;;;6.57;;
71753;SDS011;59593;51.716;7.016;2023-06-10T03:49:46;7.95;;;6.57;;
71753;SDS011;59593;51.716;7.016;2023-06-10T03:52:12;8.98;;;6.32;;
71753;SDS011;59593;51.716;7.016;2023-06-10T03:54:37;9.48;;;6.13;;
71753;SDS011;59593;51.716;7.016;2023-06-10T03:57:03;9.68;;;6.60;;
71753;SDS011;59593;51.716;7.016;2023-06-10T03:59:31;9.02;;;7.00;;
71753;SDS011;59593;51.716;7.016;2023-06-10T04:01:56;8.57;;;6.80;;
71753;SDS011;59593;51.716;7.016;2023-06-10T04:04:22;9.18;;;6.22;;
71753;SDS011;59593;51.716;7.016;2023-06-10T04:06:48;11.55;;;6.63;;
71753;SDS011;59593;51.716;7.016;2023-06-10T04:09:14;10.98;;;6.55;;
71753;SDS011;59593;51.716;7.016;2023-06-10T04:11:41;7.15;;;6.00;;
71753;SDS011;59593;51.716;7.016;2023-06-10T04:14:07;12.18;;;6.50;;
71753;SDS011;59593;51.716;7.016;2023-06-10T04:16:33;8.55;;;6.60;;
71753;SDS011;59593;51.716;7.016;2023-06-10T04:18:59;8.82;;;6.07;;
71753;SDS011;59593;51.716;7.016;2023-06-10T04:21:25;10.63;;;6.53;;
71753;SDS011;59593;51.716;7.016;2023-06-10T04:23:51;9.82;;;6.50;;
71753;SDS011;59593;51.716;7.016;2023-06-10T04:26:17;8.70;;;6.25;;
71753;SDS011;59593;51.716;7.016;2023-06-10T04:28:43;9.95;;;6.63;;
71753;SDS011;59593;51.716;7.016;2023-06-10T04:31:09;12.52;;;6.47;;
71753;SDS011;59593;51.716;7.016;2023-06-10T04:33:35;8.93;;;6.20;;
71753;SDS011;59593;51.716;7.016;2023-06-10T04:36:00;15.00;;;6.40;;
71753;SDS011;59593;51.716;7.016;2023-06-10T04:38:26;9.63;;;6.07;;
71753;SDS011;59593;51.716;7.016;2023-06-10T04:40:52;9.77;;;6.10;;
71753;SDS011;59593;51.716;7.016;2023-06-10T04:43:17;8.77;;;6.32;;
71753;SDS011;59593;51.716;7.016;2023-06-10T04:45:43;7.20;;;5.95;;
71753;SDS011;59593;51.716;7.016;2023-06-10T04:48:10;9.23;;;6.30;;
71753;SDS011;59593;51.716;7.016;2023-06-10T04:50:36;10.40;;;5.65;;
71753;SDS011;59593;51.716;7.016;2023-06-10T04:53:02;8.82;;;6.18;;
71753;SDS011;59593;51.716;7.016;2023-06-10T04:55:27;8.48;;;6.45;;
71753;SDS011;59593;51.716;7.016;2023-06-10T04:57:53;9.70;;;6.78;;
71753;SDS011;59593;51.716;7.016;2023-06-10T05:00:19;7.75;;;5.80;;
71753;SDS011;59593;51.716;7.016;2023-06-10T05:02:45;8.27;;;6.22;;
71753;SDS011;59593;51.716;7.016;2023-06-10T05:05:14;8.07;;;6.07;;
71753;SDS011;59593;51.716;7.016;2023-06-10T05:07:42;10.40;;;6.30;;
71753;SDS011;59593;51.716;7.016;2023-06-10T05:10:08;10.07;;;6.18;;
71753;SDS011;59593;51.716;7.016;2023-06-10T05:12:35;9.05;;;5.97;;
71753;SDS011;59593;51.716;7.016;2023-06-10T05:15:01;11.57;;;6.38;;
71753;SDS011;59593;51.716;7.016;2023-06-10T05:17:27;8.48;;;5.82;;
71753;SDS011;59593;51.716;7.016;2023-06-10T05:19:53;10.73;;;6.13;;
71753;SDS011;59593;51.716;7.016;2023-06-10T05:22:19;8.13;;;5.88;;
71753;SDS011;59593;51.716;7.016;2023-06-10T05:24:44;8.15;;;6.05;;
71753;SDS011;59593;51.716;7.016;2023-06-10T05:27:10;10.18;;;6.05;;
71753;SDS011;59593;51.716;7.016;2023-06-10T05:29:36;9.20;;;5.90;;
71753;SDS011;59593;51.716;7.016;2023-06-10T05:32:03;7.72;;;5.78;;
71753;SDS011;59593;51.716;7.016;2023-06-10T05:34:29;8.20;;;6.40;;
71753;SDS011;59593;51.716;7.016;2023-06-10T05:36:55;6.72;;;5.65;;
71753;SDS011;59593;51.716;7.016;2023-06-10T05:39:21;8.75;;;6.03;;
71753;SDS011;59593;51.716;7.016;2023-06-10T05:41:46;14.70;;;7.00;;
71753;SDS011;59593;51.716;7.016;2023-06-10T05:44:12;8.30;;;6.00;;
71753;SDS011;59593;51.716;7.016;2023-06-10T05:46:38;9.50;;;6.18;;
71753;SDS011;59593;51.716;7.016;2023-06-10T05:49:03;9.15;;;5.78;;
71753;SDS011;59593;51.716;7.016;2023-06-10T05:51:29;7.32;;;5.85;;
71753;SDS011;59593;51.716;7.016;2023-06-10T05:53:55;8.50;;;5.93;;
71753;SDS011;59593;51.716;7.016;2023-06-10T05:56:20;8.35;;;6.03;;
71753;SDS011;59593;51.716;7.016;2023-06-10T05:58:49;9.73;;;5.78;;
71753;SDS011;59593;51.716;7.016;2023-06-10T06:01:16;7.90;;;5.72;;
71753;SDS011;59593;51.716;7.016;2023-06-10T06:03:41;9.05;;;5.90;;
71753;SDS011;59593;51.716;7.016;2023-06-10T06:06:07;7.90;;;5.68;;
71753;SDS011;59593;51.716;7.016;2023-06-10T06:08:33;9.88;;;5.88;;
71753;SDS011;59593;51.716;7.016;2023-06-10T06:10:58;7.47;;;5.90;;
71753;SDS011;59593;51.716;7.016;2023-06-10T06:13:24;8.73;;;5.65;;
71753;SDS011;59593;51.716;7.016;2023-06-10T06:15:50;9.75;;;5.68;;
71753;SDS011;59593;51.716;7.016;2023-06-10T06:18:15;8.70;;;6.00;;
71753;SDS011;59593;51.716;7.016;2023-06-10T06:20:41;7.32;;;5.55;;
71753;SDS011;59593;51.716;7.016;2023-06-10T06:23:06;9.00;;;6.05;;
71753;SDS011;59593;51.716;7.016;2023-06-10T06:25:35;8.45;;;5.80;;
71753;SDS011;59593;51.716;7.016;2023-06-10T06:28:01;8.00;;;5.63;;
71753;SDS011;59593;51.716;7.016;2023-06-10T06:30:27;9.70;;;5.60;;
71753;SDS011;59593;51.716;7.016;2023-06-10T06:32:52;7.60;;;5.35;;
71753;SDS011;59593;51.716;7.016;2023-06-10T06:35:18;8.50;;;5.60;;
71753;SDS011;59593;51.716;7.016;2023-06-10T06:37:44;9.32;;;5.15;;
71753;SDS011;59593;51.716;7.016;2023-06-10T06:40:09;7.13;;;5.50;;
71753;SDS011;59593;51.716;7.016;2023-06-10T06:42:35;6.68;;;5.45;;
71753;SDS011;59593;51.716;7.016;2023-06-10T06:45:01;7.45;;;5.03;;
71753;SDS011;59593;51.716;7.016;2023-06-10T06:47:27;8.80;;;5.25;;
71753;SDS011;59593;51.716;7.016;2023-06-10T06:49:52;6.47;;;4.90;;
71753;SDS011;59593;51.716;7.016;2023-06-10T06:52:18;7.82;;;5.25;;
71753;SDS011;59593;51.716;7.016;2023-06-10T06:54:44;8.25;;;5.25;;
71753;SDS011;59593;51.716;7.016;2023-06-10T06:57:10;7.50;;;5.50;;
71753;SDS011;59593;51.716;7.016;2023-06-10T06:59:35;6.88;;;5.07;;
71753;SDS011;59593;51.716;7.016;2023-06-10T07:02:02;7.00;;;4.60;;
71753;SDS011;59593;51.716;7.016;2023-06-10T07:04:31;8.15;;;4.85;;
71753;SDS011;59593;51.716;7.016;2023-06-10T07:06:57;8.15;;;5.13;;
71753;SDS011;59593;51.716;7.016;2023-06-10T07:09:22;7.10;;;4.88;;
71753;SDS011;59593;51.716;7.016;2023-06-10T07:11:48;6.68;;;5.15;;
71753;SDS011;59593;51.716;7.016;2023-06-10T07:14:13;7.90;;;4.50;;
71753;SDS011;59593;51.716;7.016;2023-06-10T07:16:39;7.85;;;4.57;;
71753;SDS011;59593;51.716;7.016;2023-06-10T07:19:04;6.97;;;4.70;;
71753;SDS011;59593;51.716;7.016;2023-06-10T07:21:30;7.82;;;4.82;;
71753;SDS011;59593;51.716;7.016;2023-06-10T07:23:57;7.53;;;4.82;;
71753;SDS011;59593;51.716;7.016;2023-06-10T07:26:23;7.10;;;4.90;;
71753;SDS011;59593;51.716;7.016;2023-06-10T07:28:49;7.40;;;4.88;;
71753;SDS011;59593;51.716;7.016;2023-06-10T07:31:14;7.63;;;4.60;;
71753;SDS011;59593;51.716;7.016;2023-06-10T07:33:40;7.10;;;4.90;;
71753;SDS011;59593;51.716;7.016;2023-06-10T07:36:06;5.70;;;4.68;;
71753;SDS011;59593;51.716;7.016;2023-06-10T07:38:32;6.45;;;5.05;;
71753;SDS011;59593;51.716;7.016;2023-06-10T07:40:57;6.93;;;4.25;;
71753;SDS011;59593;51.716;7.016;2023-06-10T07:43:23;6.43;;;4.90;;
71753;SDS011;59593;51.716;7.016;2023-06-10T07:45:49;7.22;;;5.25;;
71753;SDS011;59593;51.716;7.016;2023-06-10T07:48:15;7.63;;;4.78;;
71753;SDS011;59593;51.716;7.016;2023-06-10T07:50:40;7.30;;;5.00;;
71753;SDS011;59593;51.716;7.016;2023-06-10T07:53:06;7.25;;;5.00;;
71753;SDS011;59593;51.716;7.016;2023-06-10T07:55:32;9.70;;;4.80;;
71753;SDS011;59593;51.716;7.016;2023-06-10T07:57:57;6.60;;;5.00;;
71753;SDS011;59593;51.716;7.016;2023-06-10T08:00:23;8.52;;;5.00;;
71753;SDS011;59593;51.716;7.016;2023-06-10T08:02:49;7.35;;;4.90;;
71753;SDS011;59593;51.716;7.016;2023-06-10T08:05:15;8.73;;;4.93;;
71753;SDS011;59593;51.716;7.016;2023-06-10T08:07:41;8.45;;;5.22;;
71753;SDS011;59593;51.716;7.016;2023-06-10T08:10:07;8.35;;;4.82;;
71753;SDS011;59593;51.716;7.016;2023-06-10T08:12:33;8.20;;;4.90;;
71753;SDS011;59593;51.716;7.016;2023-06-10T08:15:00;7.63;;;4.85;;
71753;SDS011;59593;51.716;7.016;2023-06-10T08:17:26;5.90;;;5.20;;
71753;SDS011;59593;51.716;7.016;2023-06-10T08:19:51;8.13;;;5.00;;
71753;SDS011;59593;51.716;7.016;2023-06-10T08:22:17;10.45;;;5.68;;
71753;SDS011;59593;51.716;7.016;2023-06-10T08:24:43;8.73;;;5.47;;
71753;SDS011;59593;51.716;7.016;2023-06-10T08:27:09;7.63;;;5.18;;
71753;SDS011;59593;51.716;7.016;2023-06-10T08:29:35;6.38;;;5.00;;
71753;SDS011;59593;51.716;7.016;2023-06-10T08:32:00;9.38;;;5.25;;
71753;SDS011;59593;51.716;7.016;2023-06-10T08:34:26;6.15;;;5.47;;
71753;SDS011;59593;51.716;7.016;2023-06-10T08:36:52;6.68;;;4.65;;
71753;SDS011;59593;51.716;7.016;2023-06-10T08:39:20;9.10;;;5.03;;
71753;SDS011;59593;51.716;7.016;2023-06-10T08:44:40;7.03;;;5.10;;
71753;SDS011;59593;51.716;7.016;2023-06-10T08:47:13;6.97;;;5.00;;
71753;SDS011;59593;51.716;7.016;2023-06-10T08:49:46;6.38;;;5.13;;
71753;SDS011;59593;51.716;7.016;2023-06-10T08:52:15;5.70;;;4.82;;
71753;SDS011;59593;51.716;7.016;2023-06-10T08:54:47;7.95;;;4.88;;
71753;SDS011;59593;51.716;7.016;2023-06-10T08:57:17;6.32;;;5.55;;
71753;SDS011;59593;51.716;7.016;2023-06-10T08:59:45;9.65;;;5.03;;
71753;SDS011;59593;51.716;7.016;2023-06-10T09:02:11;9.20;;;5.20;;
71753;SDS011;59593;51.716;7.016;2023-06-10T09:04:38;7.28;;;5.10;;
71753;SDS011;59593;51.716;7.016;2023-06-10T09:07:04;5.85;;;5.03;;
71753;SDS011;59593;51.716;7.016;2023-06-10T09:09:34;6.88;;;5.03;;
71753;SDS011;59593;51.716;7.016;2023-06-10T09:12:03;6.50;;;4.80;;
71753;SDS011;59593;51.716;7.016;2023-06-10T09:14:29;7.82;;;5.10;;
71753;SDS011;59593;51.716;7.016;2023-06-10T09:16:55;7.18;;;5.20;;
71753;SDS011;59593;51.716;7.016;2023-06-10T09:19:23;8.75;;;5.78;;
71753;SDS011;59593;51.716;7.016;2023-06-10T09:21:50;9.32;;;5.07;;
71753;SDS011;59593;51.716;7.016;2023-06-10T09:24:15;9.27;;;5.50;;
71753;SDS011;59593;51.716;7.016;2023-06-10T09:26:42;6.07;;;5.13;;
71753;SDS011;59593;51.716;7.016;2023-06-10T09:29:08;7.13;;;5.07;;
71753;SDS011;59593;51.716;7.016;2023-06-10T09:31:36;6.82;;;4.90;;
71753;SDS011;59593;51.716;7.016;2023-06-10T09:34:13;9.27;;;5.00;;
71753;SDS011;59593;51.716;7.016;2023-06-10T09:36:41;6.70;;;4.55;;
71753;SDS011;59593;51.716;7.016;2023-06-10T09:39:15;9.52;;;5.30;;
71753;SDS011;59593;51.716;7.016;2023-06-10T09:41:44;7.47;;;4.85;;
71753;SDS011;59593;51.716;7.016;2023-06-10T09:44:14;5.57;;;4.60;;
71753;SDS011;59593;51.716;7.016;2023-06-10T09:46:45;8.73;;;5.07;;
71753;SDS011;59593;51.716;7.016;2023-06-10T09:49:12;7.28;;;5.10;;
71753;SDS011;59593;51.716;7.016;2023-06-10T09:51:38;5.55;;;5.00;;
71753;SDS011;59593;51.716;7.016;2023-06-10T09:54:17;7.07;;;4.88;;
71753;SDS011;59593;51.716;7.016;2023-06-10T09:56:43;8.38;;;4.55;;
71753;SDS011;59593;51.716;7.016;2023-06-10T09:59:16;5.43;;;4.90;;
71753;SDS011;59593;51.716;7.016;2023-06-10T10:01:58;8.38;;;5.03;;
71753;SDS011;59593;51.716;7.016;2023-06-10T10:04:25;6.68;;;5.03;;
71753;SDS011;59593;51.716;7.016;2023-06-10T10:06:52;6.70;;;4.82;;
71753;SDS011;59593;51.716;7.016;2023-06-10T10:09:17;5.57;;;5.00;;
71753;SDS011;59593;51.716;7.016;2023-06-10T10:11:43;7.03;;;4.70;;
71753;SDS011;59593;51.716;7.016;2023-06-10T10:14:09;6.65;;;5.15;;
71753;SDS011;59593;51.716;7.016;2023-06-10T10:16:37;6.55;;;5.00;;
71753;SDS011;59593;51.716;7.016;2023-06-10T10:19:14;5.85;;;5.10;;
71753;SDS011;59593;51.716;7.016;2023-06-10T10:21:50;6.97;;;5.05;;
71753;SDS011;59593;51.716;7.016;2023-06-10T10:24:20;7.22;;;4.72;;
71753;SDS011;59593;51.716;7.016;2023-06-10T10:26:48;7.28;;;5.03;;
71753;SDS011;59593;51.716;7.016;2023-06-10T10:29:31;5.07;;;4.57;;
71753;SDS011;59593;51.716;7.016;2023-06-10T10:32:03;7.32;;;4.82;;
71753;SDS011;59593;51.716;7.016;2023-06-10T10:34:55;8.82;;;5.15;;
71753;SDS011;59593;51.716;7.016;2023-06-10T10:37:34;6.70;;;5.20;;
71753;SDS011;59593;51.716;7.016;2023-06-10T10:40:01;7.55;;;5.13;;
71753;SDS011;59593;51.716;7.016;2023-06-10T10:42:29;7.35;;;5.28;;
71753;SDS011;59593;51.716;7.016;2023-06-10T10:44:55;7.65;;;4.90;;
71753;SDS011;59593;51.716;7.016;2023-06-10T10:47:21;6.78;;;5.30;;
71753;SDS011;59593;51.716;7.016;2023-06-10T10:49:48;7.32;;;5.00;;
71753;SDS011;59593;51.716;7.016;2023-06-10T10:52:20;7.82;;;5.00;;
71753;SDS011;59593;51.716;7.016;2023-06-10T10:54:46;8.55;;;4.88;;
71753;SDS011;59593;51.716;7.016;2023-06-10T10:57:18;6.22;;;5.07;;
71753;SDS011;59593;51.716;7.016;2023-06-10T10:59:46;8.50;;;4.80;;
71753;SDS011;59593;51.716;7.016;2023-06-10T11:05:03;8.25;;;5.30;;
71753;SDS011;59593;51.716;7.016;2023-06-10T11:07:33;7.20;;;5.00;;
71753;SDS011;59593;51.716;7.016;2023-06-10T11:15:11;7.72;;;4.78;;
71753;SDS011;59593;51.716;7.016;2023-06-10T11:17:37;5.85;;;4.88;;
71753;SDS011;59593;51.716;7.016;2023-06-10T11:20:41;6.75;;;5.18;;
71753;SDS011;59593;51.716;7.016;2023-06-10T11:23:08;8.23;;;5.07;;
71753;SDS011;59593;51.716;7.016;2023-06-10T11:25:49;5.80;;;5.10;;
71753;SDS011;59593;51.716;7.016;2023-06-10T11:28:19;5.70;;;5.07;;
71753;SDS011;59593;51.716;7.016;2023-06-10T11:30:45;9.15;;;5.32;;
71753;SDS011;59593;51.716;7.016;2023-06-10T11:33:16;7.63;;;5.00;;
71753;SDS011;59593;51.716;7.016;2023-06-10T11:35:42;7.47;;;5.00;;
71753;SDS011;59593;51.716;7.016;2023-06-10T11:38:08;7.00;;;5.57;;
71753;SDS011;59593;51.716;7.016;2023-06-10T11:40:34;8.10;;;5.18;;
71753;SDS011;59593;51.716;7.016;2023-06-10T11:43:01;7.47;;;5.68;;
71753;SDS011;59593;51.716;7.016;2023-06-10T11:45:29;6.68;;;5.30;;
71753;SDS011;59593;51.716;7.016;2023-06-10T11:47:58;8.05;;;5.70;;
71753;SDS011;59593;51.716;7.016;2023-06-10T11:50:28;9.50;;;5.32;;
71753;SDS011;59593;51.716;7.016;2023-06-10T11:52:57;7.95;;;5.22;;
71753;SDS011;59593;51.716;7.016;2023-06-10T11:55:45;6.63;;;4.97;;
71753;SDS011;59593;51.716;7.016;2023-06-10T11:58:20;6.13;;;5.53;;
71753;SDS011;59593;51.716;7.016;2023-06-10T12:00:50;5.60;;;5.10;;
71753;SDS011;59593;51.716;7.016;2023-06-10T12:03:21;9.93;;;5.80;;
71753;SDS011;59593;51.716;7.016;2023-06-10T12:08:25;5.55;;;5.05;;
71753;SDS011;59593;51.716;7.016;2023-06-10T12:10:52;11.63;;;5.80;;
71753;SDS011;59593;51.716;7.016;2023-06-10T12:13:18;6.00;;;5.13;;
71753;SDS011;59593;51.716;7.016;2023-06-10T12:15:44;6.57;;;5.30;;
71753;SDS011;59593;51.716;7.016;2023-06-10T12:18:19;5.90;;;5.30;;
71753;SDS011;59593;51.716;7.016;2023-06-10T12:20:47;8.60;;;5.20;;
71753;SDS011;59593;51.716;7.016;2023-06-10T12:23:13;7.03;;;5.25;;
71753;SDS011;59593;51.716;7.016;2023-06-10T12:25:48;5.80;;;5.20;;
71753;SDS011;59593;51.716;7.016;2023-06-10T12:28:23;7.85;;;5.00;;
71753;SDS011;59593;51.716;7.016;2023-06-10T12:30:49;7.05;;;5.28;;
71753;SDS011;59593;51.716;7.016;2023-06-10T12:33:18;7.07;;;4.82;;
71753;SDS011;59593;51.716;7.016;2023-06-10T12:35:48;5.63;;;4.93;;
71753;SDS011;59593;51.716;7.016;2023-06-10T12:38:20;7.03;;;5.40;;
71753;SDS011;59593;51.716;7.016;2023-06-10T12:40:46;6.07;;;5.38;;
71753;SDS011;59593;51.716;7.016;2023-06-10T12:43:12;6.20;;;5.13;;
71753;SDS011;59593;51.716;7.016;2023-06-10T12:45:44;7.88;;;5.40;;
71753;SDS011;59593;51.716;7.016;2023-06-10T12:48:10;5.88;;;5.28;;
71753;SDS011;59593;51.716;7.016;2023-06-10T12:50:42;7.72;;;5.70;;
71753;SDS011;59593;51.716;7.016;2023-06-10T12:53:09;5.75;;;5.20;;
71753;SDS011;59593;51.716;7.016;2023-06-10T12:55:39;9.43;;;5.50;;
71753;SDS011;59593;51.716;7.016;2023-06-10T12:58:04;6.03;;;5.40;;
71753;SDS011;59593;51.716;7.016;2023-06-10T13:00:30;6.80;;;5.03;;
71753;SDS011;59593;51.716;7.016;2023-06-10T13:02:56;7.65;;;5.45;;
71753;SDS011;59593;51.716;7.016;2023-06-10T13:05:22;6.53;;;5.60;;
71753;SDS011;59593;51.716;7.016;2023-06-10T13:07:48;5.38;;;4.88;;
71753;SDS011;59593;51.716;7.016;2023-06-10T13:10:14;8.98;;;5.68;;
71753;SDS011;59593;51.716;7.016;2023-06-10T13:12:41;6.32;;;5.35;;
71753;SDS011;59593;51.716;7.016;2023-06-10T13:15:07;6.85;;;5.57;;
71753;SDS011;59593;51.716;7.016;2023-06-10T13:17:33;6.53;;;5.22;;
71753;SDS011;59593;51.716;7.016;2023-06-10T13:19:59;7.22;;;5.43;;
71753;SDS011;59593;51.716;7.016;2023-06-10T13:22:26;6.75;;;5.35;;
71753;SDS011;59593;51.716;7.016;2023-06-10T13:24:52;6.50;;;5.50;;
71753;SDS011;59593;51.716;7.016;2023-06-10T13:27:17;6.88;;;5.55;;
71753;SDS011;59593;51.716;7.016;2023-06-10T13:29:43;6.75;;;5.60;;
71753;SDS011;59593;51.716;7.016;2023-06-10T13:32:09;6.88;;;5.40;;
71753;SDS011;59593;51.716;7.016;2023-06-10T13:34:35;9.55;;;5.90;;
71753;SDS011;59593;51.716;7.016;2023-06-10T13:37:01;7.25;;;5.85;;
71753;SDS011;59593;51.716;7.016;2023-06-10T13:39:28;7.97;;;5.53;;
71753;SDS011;59593;51.716;7.016;2023-06-10T13:41:54;7.13;;;5.63;;
71753;SDS011;59593;51.716;7.016;2023-06-10T13:44:20;8.60;;;5.50;;
71753;SDS011;59593;51.716;7.016;2023-06-10T13:46:45;6.55;;;5.70;;
71753;SDS011;59593;51.716;7.016;2023-06-10T13:49:11;8.07;;;5.60;;
71753;SDS011;59593;51.716;7.016;2023-06-10T13:51:36;5.80;;;5.30;;
71753;SDS011;59593;51.716;7.016;2023-06-10T13:54:02;8.80;;;5.78;;
71753;SDS011;59593;51.716;7.016;2023-06-10T13:56:28;8.20;;;5.75;;
71753;SDS011;59593;51.716;7.016;2023-06-10T13:58:53;8.13;;;5.90;;
71753;SDS011;59593;51.716;7.016;2023-06-10T14:01:19;6.13;;;5.50;;
71753;SDS011;59593;51.716;7.016;2023-06-10T14:03:45;8.07;;;5.93;;
71753;SDS011;59593;51.716;7.016;2023-06-10T14:06:10;6.40;;;5.75;;
71753;SDS011;59593;51.716;7.016;2023-06-10T14:08:40;8.40;;;5.75;;
71753;SDS011;59593;51.716;7.016;2023-06-10T14:11:06;7.03;;;5.60;;
71753;SDS011;59593;51.716;7.016;2023-06-10T14:13:31;6.03;;;5.15;;
71753;SDS011;59593;51.716;7.016;2023-06-10T14:15:58;7.07;;;5.32;;
71753;SDS011;59593;51.716;7.016;2023-06-10T14:18:27;6.43;;;5.82;;
71753;SDS011;59593;51.716;7.016;2023-06-10T14:20:53;8.10;;;5.43;;
71753;SDS011;59593;51.716;7.016;2023-06-10T14:23:19;8.10;;;5.28;;
71753;SDS011;59593;51.716;7.016;2023-06-10T14:25:44;6.45;;;5.65;;
71753;SDS011;59593;51.716;7.016;2023-06-10T14:28:10;7.50;;;6.10;;
71753;SDS011;59593;51.716;7.016;2023-06-10T14:30:35;6.72;;;5.95;;
71753;SDS011;59593;51.716;7.016;2023-06-10T14:33:01;6.35;;;5.55;;
71753;SDS011;59593;51.716;7.016;2023-06-10T14:35:27;5.85;;;5.10;;
71753;SDS011;59593;51.716;7.016;2023-06-10T14:37:52;7.80;;;5.90;;
71753;SDS011;59593;51.716;7.016;2023-06-10T14:40:18;7.10;;;5.57;;
71753;SDS011;59593;51.716;7.016;2023-06-10T14:42:46;7.35;;;5.32;;
71753;SDS011;59593;51.716;7.016;2023-06-10T14:45:11;7.95;;;5.70;;
71753;SDS011;59593;51.716;7.016;2023-06-10T14:47:37;6.15;;;5.10;;
71753;SDS011;59593;51.716;7.016;2023-06-10T14:50:03;7.50;;;5.43;;
71753;SDS011;59593;51.716;7.016;2023-06-10T14:52:29;6.53;;;5.63;;
71753;SDS011;59593;51.716;7.016;2023-06-10T14:54:54;6.60;;;5.65;;
71753;SDS011;59593;51.716;7.016;2023-06-10T14:57:20;6.18;;;5.57;;
71753;SDS011;59593;51.716;7.016;2023-06-10T14:59:45;7.63;;;5.43;;
71753;SDS011;59593;51.716;7.016;2023-06-10T15:02:11;7.32;;;4.88;;
71753;SDS011;59593;51.716;7.016;2023-06-10T15:04:36;7.00;;;5.50;;
71753;SDS011;59593;51.716;7.016;2023-06-10T15:07:02;10.07;;;5.85;;
71753;SDS011;59593;51.716;7.016;2023-06-10T15:09:28;8.57;;;5.82;;